Loganton, Pennsylvania
Current Conditions -  °F | °C
As of 2:54 PM on Thursday 29 Jan 2015 (Local Time) from KIPT Reporting Station
Overcast Overcast  
Wind Chill: 21°   Ceiling: 6500
Heat Index: 26°   Visibility: 10mi
Dew Point:   Wind: 5mph
Humidity: 43%   Direction: NA
Pressure: 30.03"   Gusts: NA
Location:  41.03°N, 77.31°W
Report Text: KIPT 291954Z VRB04KT 10SM OVC065 M03/M14 A3003 RMK AO2 SLP177 T10331144
Loading
Personal Weather Stations






























Interactive Weather Map New forecast layout! Learn more

10-Day Weather Forecast

Advertisements
Track Severe Weather on mobile